Terminal Aerodrome Forecast
Issued by NWS

Home | Current Version | Previous Version | Text Only | Print | Product List | Glossary On
Versions: 1 2 3 4 5 6 7 8 9 10 11 12 13
000
FTPQ31 PGUM 170540
TAFGUM
TAF

TAF
PKMJ 170540Z 1706/1806 04014KT P6SM VCSH SCT015 BKN050 BKN100
      TEMPO 1706/1709 05014G23KT 3SM SHRA SCT012 BKN030=

USA.gov is the U.S. government's official web portal to all federal, state and local government web resources and services.